Time,TemperatureF,DewpointF,PressureIn,WindDirection,WindDirectionDegrees,WindSpeedMPH,WindSpeedGustMPH,Humidity,HourlyPrecipIn,Conditions,Clouds,dailyrainin,SoftwareType,DateUTC
2013-10-10 00:01:00,43.3,43.3,26.86,SSE,161,0.0,0.0,100,0.00,,,-99.99,VWS V12.07,2013-10-10 04:01:00,
2013-10-10 00:31:00,44.0,44.0,26.84,SSW,198,0.0,0.0,100,0.00,,,-99.99,VWS V12.07,2013-10-10 04:31:00,
2013-10-10 01:01:00,43.6,43.6,26.84,SSW,209,0.0,0.0,100,0.00,,,-99.99,VWS V12.07,2013-10-10 05:01:00,
2013-10-10 01:31:00,42.7,42.7,26.84,SSW,209,0.0,0.0,100,0.00,,,-99.99,VWS V12.07,2013-10-10 05:31:00,
2013-10-10 02:01:00,43.9,43.9,26.83,SSW,209,0.0,0.0,100,0.00,,,-99.99,VWS V12.07,2013-10-10 06:01:00,
2013-10-10 02:31:00,41.9,41.9,26.83,SSW,209,0.0,0.0,100,0.00,,,-99.99,VWS V12.07,2013-10-10 06:31:00,
2013-10-10 03:01:00,44.4,43.3,26.83,SSW,209,0.0,0.0,96,0.00,,,-99.99,VWS V12.07,2013-10-10 07:01:00,
2013-10-10 03:31:00,46.0,43.5,26.83,SSW,209,0.0,0.0,91,0.00,,,-99.99,VWS V12.07,2013-10-10 07:31:00,
2013-10-10 04:01:00,44.0,42.7,26.82,South,189,0.0,0.0,95,0.00,,,-99.99,VWS V12.07,2013-10-10 08:01:00,
2013-10-10 04:31:00,44.3,43.0,26.83,SSW,199,0.0,0.0,95,0.00,,,-99.99,VWS V12.07,2013-10-10 08:31:00,
2013-10-10 05:01:00,45.8,43.0,26.83,SSW,199,0.0,0.0,90,0.00,,,-99.99,VWS V12.07,2013-10-10 09:01:00,
2013-10-10 05:31:00,44.7,42.0,26.83,SSW,199,0.0,0.0,90,0.00,,,-99.99,VWS V12.07,2013-10-10 09:31:00,
2013-10-10 06:01:00,45.8,41.9,26.83,SSW,199,0.0,0.0,86,0.00,,,-99.99,VWS V12.07,2013-10-10 10:01:00,
2013-10-10 06:31:00,46.5,41.9,26.84,SSW,200,0.0,0.0,84,0.00,,,-99.99,VWS V12.07,2013-10-10 10:31:00,
2013-10-10 07:01:00,46.5,41.6,26.83,SSW,201,0.0,0.0,83,0.00,,,-99.99,VWS V12.07,2013-10-10 11:01:00,
2013-10-10 07:31:00,49.2,44.6,26.84,South,177,0.0,0.0,84,0.00,,,-99.99,VWS V12.07,2013-10-10 11:31:00,
2013-10-10 08:01:00,52.1,45.8,26.84,South,177,0.0,0.0,79,0.00,,,-99.99,VWS V12.07,2013-10-10 12:01:00,
2013-10-10 08:31:00,55.2,46.7,26.84,SSW,212,0.0,0.0,73,0.00,,,-99.99,VWS V12.07,2013-10-10 12:31:00,
2013-10-10 09:04:00,57.6,48.3,26.85,South,171,0.0,0.0,71,0.00,,,-99.99,VWS V12.07,2013-10-10 13:04:00,
2013-10-10 09:31:00,59.7,49.5,26.84,WSW,245,0.0,0.0,69,0.00,,,-99.99,VWS V12.07,2013-10-10 13:31:00,
2013-10-10 10:01:00,60.8,50.6,26.84,WNW,290,0.0,0.0,69,0.00,,,-99.99,VWS V12.07,2013-10-10 14:01:00,
2013-10-10 10:31:00,62.5,54.5,26.84,WNW,300,0.0,0.0,75,0.00,,,-99.99,VWS V12.07,2013-10-10 14:31:00,
2013-10-10 11:04:00,62.5,55.6,26.85,WSW,243,0.0,0.0,78,0.00,,,-99.99,VWS V12.07,2013-10-10 15:04:00,
2013-10-10 11:31:00,63.0,55.3,26.84,WSW,241,0.0,0.0,76,0.00,,,-99.99,VWS V12.07,2013-10-10 15:31:00,
2013-10-10 12:01:00,63.0,56.7,26.83,NNW,340,0.0,0.0,80,0.00,,,-99.99,VWS V12.07,2013-10-10 16:01:00,
2013-10-10 12:31:00,62.2,55.3,26.83,WSW,252,0.0,0.0,78,0.00,,,-99.99,VWS V12.07,2013-10-10 16:31:00,
2013-10-10 13:01:00,61.4,55.9,26.83,North,352,0.0,0.0,82,0.00,,,-99.99,VWS V12.07,2013-10-10 17:01:00,
2013-10-10 13:34:00,62.2,56.0,26.82,NNW,337,0.0,0.0,80,0.00,,,-99.99,VWS V12.07,2013-10-10 17:34:00,
2013-10-10 14:01:00,64.8,57.4,26.81,NW,310,0.0,0.0,77,0.00,,,-99.99,VWS V12.07,2013-10-10 18:01:00,
2013-10-10 14:31:00,63.7,56.7,26.81,SSW,199,0.0,0.0,78,0.00,,,-99.99,VWS V12.07,2013-10-10 18:31:00,
2013-10-10 15:05:00,63.5,58.6,26.81,SSW,206,0.0,0.0,84,0.00,,,-99.99,VWS V12.07,2013-10-10 19:05:00,
2013-10-10 15:31:00,63.3,57.0,26.80,WNW,293,0.0,0.0,80,0.00,,,-99.99,VWS V12.07,2013-10-10 19:31:00,
2013-10-10 16:01:00,60.8,55.6,26.80,West,280,0.0,0.0,83,0.00,,,-99.99,VWS V12.07,2013-10-10 20:01:00,
2013-10-10 16:31:00,59.4,55.2,26.81,SSW,204,0.0,0.0,86,0.00,,,-99.99,VWS V12.07,2013-10-10 20:31:00,
2013-10-10 17:01:00,58.5,55.6,26.80,WNW,298,0.0,0.0,90,0.00,,,-99.99,VWS V12.07,2013-10-10 21:01:00,
2013-10-10 17:31:00,57.9,55.3,26.80,SSW,193,0.0,0.0,91,0.00,,,-99.99,VWS V12.07,2013-10-10 21:31:00,
2013-10-10 18:01:00,56.8,55.1,26.80,SSW,211,0.0,0.0,94,0.00,,,-99.99,VWS V12.07,2013-10-10 22:01:00,
2013-10-10 18:31:00,55.3,53.9,26.80,SW,235,0.0,0.0,95,0.00,,,-99.99,VWS V12.07,2013-10-10 22:31:00,
2013-10-10 19:01:00,54.3,53.8,26.80,SSW,212,0.0,0.0,98,0.00,,,-99.99,VWS V12.07,2013-10-10 23:01:00,
2013-10-10 19:31:00,54.5,54.0,26.80,SW,215,0.0,0.0,98,0.00,,,-99.99,VWS V12.07,2013-10-10 23:31:00,
2013-10-10 20:01:00,54.6,53.2,26.80,South,178,0.0,0.0,95,0.00,,,-99.99,VWS V12.07,2013-10-11 00:01:00,
2013-10-10 20:34:00,54.4,52.7,26.80,SSW,201,0.0,0.0,94,0.00,,,-99.99,VWS V12.07,2013-10-11 00:34:00,
2013-10-10 21:01:00,54.6,53.2,26.80,SSW,205,0.0,0.0,95,0.00,,,-99.99,VWS V12.07,2013-10-11 01:01:00,
2013-10-10 21:31:00,55.0,53.9,26.79,South,184,0.0,0.0,96,0.00,,,-99.99,VWS V12.07,2013-10-11 01:31:00,
2013-10-10 22:01:00,53.9,53.3,26.78,SW,222,0.0,0.0,98,0.00,,,-99.99,VWS V12.07,2013-10-11 02:01:00,
2013-10-10 22:31:00,54.3,54.0,26.78,SW,218,0.0,0.0,99,0.00,,,-99.99,VWS V12.07,2013-10-11 02:31:00,
2013-10-10 23:01:00,54.2,53.7,26.77,SSW,204,0.0,0.0,98,0.00,,,-99.99,VWS V12.07,2013-10-11 03:01:00,
2013-10-10 23:31:00,53.3,52.8,26.77,SW,226,0.0,0.0,98,0.00,,,-99.99,VWS V12.07,2013-10-11 03:31:00,